createdAt,value
2024-02-23T00:03:58.653Z,98770.72
2024-02-23T00:09:01.728Z,98777.66
2024-02-23T00:14:04.888Z,98770.78
2024-02-23T00:19:10.252Z,98782.94
2024-02-23T00:24:13.286Z,98796.94
2024-02-23T00:29:16.580Z,98815.09
2024-02-23T00:34:21.186Z,98810.69
2024-02-23T00:39:24.640Z,98835.53
2024-02-23T00:44:27.854Z,98841.66
2024-02-23T00:49:33.233Z,98848.50
2024-02-23T00:54:36.900Z,98844.81
2024-02-23T00:59:40.028Z,98854.34
2024-02-23T01:04:45.034Z,98854.09
2024-02-23T01:09:48.706Z,98852.13
2024-02-23T01:14:51.766Z,98862.28
2024-02-23T01:19:56.294Z,98877.75
2024-02-23T01:24:59.360Z,98882.94
2024-02-23T01:30:03.015Z,98894.22
2024-02-23T01:35:09.046Z,98881.94
2024-02-23T01:40:16.278Z,98881.88
2024-02-23T01:45:19.538Z,98889.56
2024-02-23T01:50:24.147Z,98890.59
2024-02-23T01:55:27.268Z,98905.28
2024-02-23T02:00:31.678Z,98894.69
2024-02-23T02:05:38.291Z,98904.13
2024-02-23T02:10:41.662Z,98903.38
2024-02-23T02:15:45.019Z,98909.38
2024-02-23T02:20:57.009Z,98915.28
2024-02-23T02:26:02.839Z,98909.13
2024-02-23T02:31:05.965Z,98918.53
2024-02-23T02:36:10.511Z,98916.78
2024-02-23T02:41:13.694Z,98917.53
2024-02-23T02:46:16.894Z,98922.63
2024-02-23T02:51:22.069Z,98918.19
2024-02-23T02:56:25.465Z,98927.72
2024-02-23T03:01:28.480Z,98925.97
2024-02-23T03:06:32.975Z,98928.34
2024-02-23T03:11:36.307Z,98921.28
2024-02-23T03:16:39.788Z,98937.66
2024-02-23T03:21:44.301Z,98927.25
2024-02-23T03:26:47.478Z,98936.69
2024-02-23T03:31:50.824Z,98948.63
2024-02-23T03:36:55.805Z,98954.66
2024-02-23T03:41:58.989Z,98944.22
2024-02-23T03:47:02.184Z,98950.34
2024-02-23T03:52:07.748Z,98955.59
2024-02-23T03:57:10.819Z,98960.56
2024-02-23T04:02:14.061Z,98956.25
2024-02-23T04:07:19.085Z,98951.94
2024-02-23T04:12:22.319Z,98973.63
2024-02-23T04:17:25.473Z,98970.97
2024-02-23T04:22:29.884Z,98978.72
2024-02-23T04:27:33.187Z,98972.84
2024-02-23T04:32:36.426Z,98975.59
2024-02-23T04:37:41.634Z,98968.06
2024-02-23T04:42:46.537Z,98966.50
2024-02-23T04:47:49.649Z,98957.88
2024-02-23T04:52:54.113Z,98964.38
2024-02-23T04:57:58.451Z,98966.88
2024-02-23T05:03:04.611Z,98960.94
2024-02-23T05:08:10.822Z,98954.66
2024-02-23T05:13:14.127Z,98958.34
2024-02-23T05:18:17.358Z,98957.47
2024-02-23T05:23:22.052Z,98966.28
2024-02-23T05:28:26.108Z,98965.69
2024-02-23T05:33:29.398Z,98967.06
2024-02-23T05:38:34.472Z,98966.19
2024-02-23T05:43:37.691Z,98960.75
2024-02-23T05:48:40.925Z,98966.56
2024-02-23T05:53:45.830Z,98970.19
2024-02-23T05:58:49.106Z,98974.06
2024-02-23T06:03:54.523Z,98968.44
2024-02-23T06:08:59.172Z,98978.25
2024-02-23T06:14:02.557Z,98983.53
2024-02-23T06:19:05.924Z,98994.16
2024-02-23T06:24:10.422Z,98977.84
2024-02-23T06:29:14.927Z,98988.38
2024-02-23T06:34:18.716Z,98994.44
2024-02-23T06:39:23.547Z,98997.22
2024-02-23T06:44:26.710Z,99001.63
2024-02-23T06:49:29.996Z,98977.47
2024-02-23T06:54:34.523Z,98972.34
2024-02-23T06:59:37.853Z,98981.25
2024-02-23T07:04:41.308Z,98972.78
2024-02-23T07:09:45.996Z,98952.66
2024-02-23T07:14:49.085Z,98979.22
2024-02-23T07:19:54.104Z,98967.22
2024-02-23T07:24:58.742Z,98974.63
2024-02-23T07:30:02.087Z,98984.50
2024-02-23T07:35:06.107Z,98972.22
2024-02-23T07:40:11.693Z,98975.59
2024-02-23T07:45:15.506Z,98971.13
2024-02-23T07:50:20.304Z,98964.09
2024-02-23T07:55:25.366Z,98953.69
2024-02-23T08:00:28.622Z,98941.75
2024-02-23T08:05:32.289Z,98943.84
2024-02-23T08:10:37.043Z,98933.56
2024-02-23T08:15:40.576Z,98934.53
2024-02-23T08:20:43.857Z,98942.28
2024-02-23T08:25:49.536Z,98924.69
2024-02-23T08:30:54.375Z,98939.56
2024-02-23T08:35:57.583Z,98940.78
2024-02-23T08:41:02.445Z,98923.28
2024-02-23T08:46:08.942Z,98929.75
2024-02-23T08:51:13.781Z,98929.31
2024-02-23T08:56:18.346Z,98916.72
2024-02-23T09:01:21.882Z,98927.97
2024-02-23T09:06:25.682Z,98930.88
2024-02-23T09:11:30.756Z,98938.34
2024-02-23T09:16:34.053Z,98954.53
2024-02-23T09:21:37.435Z,98962.06
2024-02-23T09:26:42.356Z,98975.88
2024-02-23T09:31:45.428Z,98979.50
2024-02-23T09:36:49.536Z,98972.22
2024-02-23T09:41:54.636Z,98966.22
2024-02-23T09:47:00.670Z,98967.97
2024-02-23T09:52:04.892Z,98962.88
2024-02-23T09:57:11.216Z,98977.22
2024-02-23T10:02:18.244Z,98979.53
2024-02-23T10:07:21.796Z,98980.00
2024-02-23T10:12:28.104Z,98990.50
2024-02-23T10:17:33.448Z,98986.66
2024-02-23T10:22:39.042Z,98990.63
2024-02-23T10:27:44.509Z,98985.56
2024-02-23T10:32:48.466Z,99004.75
2024-02-23T10:37:54.580Z,98999.81
2024-02-23T10:43:03.940Z,99014.97
2024-02-23T10:48:09.645Z,99006.41
2024-02-23T10:53:13.890Z,99028.91
2024-02-23T10:58:20.030Z,99027.81
2024-02-23T11:03:23.318Z,99025.94
2024-02-23T11:08:26.334Z,99026.03
2024-02-23T11:13:37.574Z,99019.66
2024-02-23T11:18:42.921Z,99023.72
2024-02-23T11:23:47.419Z,99035.50
2024-02-23T11:28:55.508Z,99019.63
2024-02-23T11:34:00.144Z,99030.03
2024-02-23T11:39:04.068Z,99030.41
2024-02-23T11:44:09.731Z,99040.38
2024-02-23T11:49:13.005Z,99053.47
2024-02-23T11:54:16.666Z,99048.19
2024-02-23T11:59:22.715Z,99047.34
2024-02-23T12:04:26.409Z,99055.34
2024-02-23T12:09:29.746Z,99045.06
2024-02-23T12:14:34.913Z,99039.06
2024-02-23T12:19:41.342Z,99042.56
2024-02-23T12:24:44.575Z,99054.88
2024-02-23T12:29:54.802Z,99068.03
2024-02-23T12:34:58.655Z,99070.81
2024-02-23T12:40:01.908Z,99081.44
2024-02-23T12:45:08.176Z,99074.44
2024-02-23T12:50:12.534Z,99086.66
2024-02-23T12:55:16.561Z,99098.09
2024-02-23T13:00:21.552Z,99094.69
2024-02-23T13:05:25.729Z,99105.28
2024-02-23T13:10:28.868Z,99113.09
2024-02-23T13:15:33.549Z,99096.69
2024-02-23T13:20:37.134Z,99104.63
2024-02-23T13:25:42.132Z,99096.84
2024-02-23T13:30:46.729Z,99107.31
2024-02-23T13:35:50.094Z,99094.78
2024-02-23T13:40:53.458Z,99112.34
2024-02-23T13:45:59.786Z,99101.19
2024-02-23T13:51:04.693Z,99099.47
2024-02-23T13:56:08.449Z,99100.47
2024-02-23T14:01:13.024Z,99109.22
2024-02-23T14:06:16.864Z,99119.72
2024-02-23T14:11:20.795Z,99112.78
2024-02-23T14:16:26.266Z,99104.94
2024-02-23T14:21:30.083Z,99115.44
2024-02-23T14:26:34.482Z,99102.34
2024-02-23T14:31:39.228Z,99119.81
2024-02-23T14:36:42.340Z,99104.97
2024-02-23T14:41:47.543Z,99114.81
2024-02-23T14:46:52.823Z,99111.09
2024-02-23T14:51:56.089Z,99118.94
2024-02-23T14:56:59.756Z,99122.25
2024-02-23T15:02:06.501Z,99130.03
2024-02-23T15:07:09.827Z,99125.72
2024-02-23T15:12:15.040Z,99129.16
2024-02-23T15:17:19.841Z,99138.75
2024-02-23T15:22:23.117Z,99134.25
2024-02-23T15:27:26.350Z,99141.13
2024-02-23T15:32:31.349Z,99149.84
2024-02-23T15:37:35.690Z,99143.66
2024-02-23T15:42:39.237Z,99149.72
2024-02-23T15:47:44.068Z,99145.28
2024-02-23T15:52:49.123Z,99139.97
2024-02-23T15:57:52.264Z,99148.59
2024-02-23T16:02:58.021Z,99150.25
2024-02-23T16:08:04.845Z,99143.91
2024-02-23T16:13:08.476Z,99148.97
2024-02-23T16:18:13.383Z,99137.38
2024-02-23T16:23:16.599Z,99138.16
2024-02-23T16:28:20.335Z,99149.31
2024-02-23T16:33:26.077Z,99146.56
2024-02-23T16:38:29.549Z,99158.59
2024-02-23T16:43:35.104Z,99164.59
2024-02-23T16:48:39.973Z,99168.00
2024-02-23T16:53:43.549Z,99172.47
2024-02-23T16:58:47.632Z,99205.72
2024-02-23T17:03:52.775Z,99241.16
2024-02-23T17:08:56.265Z,99235.91
2024-02-23T17:13:59.449Z,99264.06
2024-02-23T17:19:04.306Z,99280.09
2024-02-23T17:24:08.222Z,99271.28
2024-02-23T17:29:13.730Z,99262.56
2024-02-23T17:34:18.487Z,99266.72
2024-02-23T17:39:21.628Z,99258.63
2024-02-23T17:44:28.609Z,99235.00
2024-02-23T17:49:33.491Z,99248.66
2024-02-23T17:54:36.973Z,99239.56
2024-02-23T17:59:41.031Z,99245.09
2024-02-23T18:04:47.757Z,99242.16
2024-02-23T18:09:51.034Z,99258.72
2024-02-23T18:14:54.144Z,99273.69
2024-02-23T18:19:58.927Z,99279.88
2024-02-23T18:25:02.277Z,99292.91
2024-02-23T18:30:07.903Z,99282.38
2024-02-23T18:35:12.827Z,99276.19
2024-02-23T18:40:16.556Z,99278.53
2024-02-23T18:45:21.763Z,99263.22
2024-02-23T18:50:26.773Z,99268.97
2024-02-23T18:55:30.165Z,99257.34
2024-02-23T19:00:33.911Z,99257.06
2024-02-23T19:05:38.674Z,99269.25
2024-02-23T19:10:42.530Z,99269.47
2024-02-23T19:15:47.521Z,99266.81
2024-02-23T19:20:52.499Z,99268.88
2024-02-23T19:25:58.166Z,99333.66
2024-02-23T19:31:01.199Z,99312.06
2024-02-23T19:36:06.503Z,99321.00
2024-02-23T19:41:09.636Z,99316.66
2024-02-23T19:46:17.647Z,99318.78
2024-02-23T19:51:22.560Z,99323.94
2024-02-23T19:56:25.868Z,99322.16
2024-02-23T20:01:29.573Z,99336.25
2024-02-23T20:06:34.382Z,99325.75
2024-02-23T20:11:37.915Z,99319.75
2024-02-23T20:16:41.134Z,99318.97
2024-02-23T20:21:45.728Z,99329.31
2024-02-23T20:26:49.510Z,99334.53
2024-02-23T20:31:52.746Z,99345.81
2024-02-23T20:36:57.285Z,99355.44
2024-02-23T20:42:00.654Z,99363.25
2024-02-23T20:47:04.140Z,99377.94
2024-02-23T20:52:11.275Z,99371.56
2024-02-23T20:57:14.525Z,99356.81
2024-02-23T21:02:22.936Z,99333.50
2024-02-23T21:07:27.789Z,99352.25
2024-02-23T21:12:31.079Z,99363.31
2024-02-23T21:17:34.331Z,99357.88
2024-02-23T21:22:39.354Z,99355.88
2024-02-23T21:27:42.713Z,99364.47
2024-02-23T21:32:46.070Z,99370.44
2024-02-23T21:37:50.779Z,99354.72
2024-02-23T21:42:54.055Z,99369.56
2024-02-23T21:47:57.520Z,99368.53
2024-02-23T21:53:02.510Z,99368.66
2024-02-23T21:58:06.176Z,99372.94
2024-02-23T22:03:09.462Z,99376.91
2024-02-23T22:08:14.281Z,99379.78
2024-02-23T22:13:17.482Z,99382.13
2024-02-23T22:18:20.863Z,99372.75
2024-02-23T22:23:25.453Z,99366.75
2024-02-23T22:28:28.632Z,99375.59
2024-02-23T22:33:32.707Z,99375.56
2024-02-23T22:38:37.580Z,99366.50
2024-02-23T22:43:41.815Z,99369.50
2024-02-23T22:48:45.090Z,99379.19
2024-02-23T22:53:49.729Z,99374.50
2024-02-23T22:58:52.892Z,99377.84
2024-02-23T23:03:55.909Z,99376.00
2024-02-23T23:09:01.042Z,99373.19
2024-02-23T23:14:04.893Z,99386.09
2024-02-23T23:19:08.149Z,99390.31
2024-02-23T23:24:12.901Z,99394.44
2024-02-23T23:29:16.038Z,99390.81
2024-02-23T23:34:20.376Z,99402.88
2024-02-23T23:39:25.548Z,99401.94
2024-02-23T23:44:29.036Z,99404.56
2024-02-23T23:49:32.243Z,99410.56
2024-02-23T23:54:37.130Z,99404.56
2024-02-23T23:59:40.381Z,99415.78
